Time;durP1;ratioP1;P1;durP2;ratioP2;P2;SDS_P1;SDS_P2;PMS_P1;PMS_P2;Temp;Humidity;BMP_temperature;BMP_pressure;BME280_temperature;BME280_humidity;BME280_pressure;Samples;Min_cycle;Max_cycle;Signal;HPM_P1;HPM_P2
2022/08/29 00:00:52;;;;;;;12.93;7.85;;;;;;;15.42;100.00;100540.63;5072049;28;20036;-73
2022/08/29 00:03:17;;;;;;;10.13;7.07;;;;;;;15.36;100.00;100539.88;5072960;28;20060;-74
2022/08/29 00:05:42;;;;;;;13.50;7.22;;;;;;;15.28;100.00;100537.47;5072777;28;20060;-74
2022/08/29 00:08:08;;;;;;;11.65;7.35;;;;;;;15.28;100.00;100537.47;5071788;28;20427;-73
2022/08/29 00:10:35;;;;;;;13.45;7.45;;;;;;;15.26;100.00;100543.00;5072732;28;20028;-74
2022/08/29 00:13:00;;;;;;;10.60;6.65;;;;;;;15.23;100.00;100538.25;5055085;28;20036;-73
2022/08/29 00:15:26;;;;;;;11.27;6.50;;;;;;;15.18;100.00;100550.53;5073033;28;20385;-75
2022/08/29 00:17:51;;;;;;;12.35;6.97;;;;;;;15.14;100.00;100540.59;5072718;28;20409;-74
2022/08/29 00:20:21;;;;;;;9.73;6.25;;;;;;;15.14;100.00;100550.00;5073306;28;20445;-74
2022/08/29 00:22:47;;;;;;;9.77;6.53;;;;;;;15.12;100.00;100543.97;5072821;28;20016;-74
2022/08/29 00:25:13;;;;;;;11.43;6.60;;;;;;;15.12;100.00;100546.84;5071430;28;20020;-75
2022/08/29 00:27:39;;;;;;;9.05;6.65;;;;;;;15.11;100.00;100548.19;5071593;28;20025;-73
2022/08/29 00:30:06;;;;;;;15.77;6.78;;;;;;;15.05;100.00;100538.75;5054844;28;20040;-74
2022/08/29 00:32:33;;;;;;;13.55;6.93;;;;;;;15.08;100.00;100549.22;5072588;28;20021;-75
2022/08/29 00:35:08;;;;;;;11.68;6.90;;;;;;;14.99;100.00;100555.19;5072467;28;20042;-75
2022/08/29 00:37:33;;;;;;;14.05;6.40;;;;;;;15.01;100.00;100554.69;5054741;28;20050;-75
2022/08/29 00:39:59;;;;;;;9.85;6.88;;;;;;;15.02;100.00;100557.03;5072465;28;20381;-74
2022/08/29 00:42:24;;;;;;;13.25;6.82;;;;;;;15.01;100.00;100548.94;5071624;28;20028;-73
2022/08/29 00:44:50;;;;;;;12.40;7.28;;;;;;;15.03;100.00;100557.81;5072523;28;20466;-74
2022/08/29 00:47:21;;;;;;;14.15;7.32;;;;;;;15.02;100.00;100559.16;5071167;28;20066;-74
2022/08/29 00:49:50;;;;;;;13.18;6.95;;;;;;;14.96;100.00;100564.09;5071462;28;20012;-74
2022/08/29 00:52:30;;;;;;;12.13;6.60;;;;;;;14.95;100.00;100560.41;5071500;28;20103;-75
2022/08/29 00:54:56;;;;;;;10.55;6.57;;;;;;;14.86;100.00;100551.22;5070804;28;20046;-74
2022/08/29 00:57:22;;;;;;;11.82;6.97;;;;;;;14.88;100.00;100552.28;5069958;28;20024;-73
2022/08/29 00:59:48;;;;;;;12.90;6.25;;;;;;;14.87;100.00;100550.72;5068850;28;20469;-74
2022/08/29 01:02:14;;;;;;;13.30;6.45;;;;;;;14.90;100.00;100554.63;5068936;28;20020;-74
2022/08/29 01:04:39;;;;;;;8.95;6.60;;;;;;;14.92;100.00;100557.81;5068715;28;20025;-73
2022/08/29 01:07:07;;;;;;;10.90;6.30;;;;;;;14.96;100.00;100561.22;5069301;28;20171;-75
2022/08/29 01:09:35;;;;;;;10.07;6.75;;;;;;;14.95;100.00;100559.63;5070316;28;20012;-74
2022/08/29 01:12:16;;;;;;;11.60;6.20;;;;;;;14.94;100.00;100558.84;5068922;28;20618;-74
2022/08/29 01:14:48;;;;;;;10.70;6.47;;;;;;;14.94;100.00;100550.22;5070376;28;20055;-74
2022/08/29 01:17:18;;;;;;;14.88;7.68;;;;;;;14.93;100.00;100559.34;5069060;28;20282;-74
2022/08/29 01:19:58;;;;;;;9.30;5.80;;;;;;;14.97;100.00;100554.91;5069999;28;20112;-74
2022/08/29 01:22:33;;;;;;;9.95;6.80;;;;;;;14.97;100.00;100559.91;5068695;28;20108;-74
2022/08/29 01:25:01;;;;;;;13.35;6.85;;;;;;;14.96;100.00;100559.13;5068774;28;20031;-74
2022/08/29 01:27:29;;;;;;;12.63;6.53;;;;;;;14.98;100.00;100561.47;5069722;28;20111;-73
2022/08/29 01:29:54;;;;;;;12.27;6.90;;;;;;;14.98;100.00;100561.47;5070701;28;20520;-74
2022/08/29 01:32:22;;;;;;;13.52;6.40;;;;;;;15.01;100.00;100563.31;5070878;28;20104;-73
2022/08/29 01:34:47;;;;;;;8.88;6.05;;;;;;;15.00;100.00;100559.66;5070676;28;20016;-74
2022/08/29 01:37:14;;;;;;;15.57;6.95;;;;;;;15.00;100.00;100568.28;5070628;28;20380;-74
2022/08/29 01:39:42;;;;;;;12.35;6.88;;;;;;;15.00;100.00;100559.66;5070677;28;20094;-74
2022/08/29 01:42:20;;;;;;;10.38;6.72;;;;;;;14.97;100.00;100568.53;5072410;28;20105;-75
2022/08/29 01:44:50;;;;;;;9.80;6.45;;;;;;;14.93;100.00;100565.91;5072460;28;20024;-74
2022/08/29 01:47:16;;;;;;;12.30;6.25;;;;;;;14.88;100.00;100566.66;5071460;28;20029;-73
2022/08/29 01:49:42;;;;;;;13.43;7.10;;;;;;;14.87;100.00;100570.88;5071014;28;20530;-74
2022/08/29 01:52:07;;;;;;;14.57;6.47;;;;;;;14.83;100.00;100567.41;5072233;28;20020;-73
2022/08/29 01:54:33;;;;;;;14.23;6.80;;;;;;;14.82;100.00;100568.75;5072333;28;20485;-74
2022/08/29 01:57:00;;;;;;;13.93;6.10;;;;;;;14.86;100.00;100571.38;5072200;28;20016;-74
2022/08/29 01:59:26;;;;;;;8.80;5.50;;;;;;;14.92;100.00;100575.06;5071724;28;20031;-74
2022/08/29 02:02:00;;;;;;;9.80;5.85;;;;;;;14.96;100.00;100570.63;5072838;28;20461;-75
2022/08/29 02:04:26;;;;;;;12.73;6.05;;;;;;;15.04;100.00;100570.91;5072658;28;20024;-74
2022/08/29 02:06:51;;;;;;;9.15;6.43;;;;;;;15.07;100.00;100572.78;5072721;28;20071;-74
2022/08/29 02:09:17;;;;;;;10.90;6.85;;;;;;;15.16;100.00;100566.78;5072694;28;20393;-74
2022/08/29 02:11:44;;;;;;;11.75;6.57;;;;;;;15.17;100.00;100559.69;5054764;28;20028;-74
2022/08/29 02:14:10;;;;;;;11.68;6.20;;;;;;;15.20;100.00;100568.09;5072918;28;20096;-74
2022/08/29 02:16:35;;;;;;;7.32;5.75;;;;;;;15.24;100.00;100565.75;5073212;28;20429;-74
2022/08/29 02:19:01;;;;;;;12.80;6.05;;;;;;;15.23;100.00;100574.91;5058005;28;20508;-74
2022/08/29 02:21:28;;;;;;;9.73;5.72;;;;;;;15.23;100.00;100575.69;5074785;28;20020;-74
2022/08/29 02:23:56;;;;;;;8.68;5.97;;;;;;;15.19;100.00;100571.50;5075968;28;20028;-74
2022/08/29 02:26:21;;;;;;;10.60;5.55;;;;;;;15.13;100.00;100574.34;5076066;28;20025;-74
2022/08/29 02:28:50;;;;;;;11.15;6.35;;;;;;;15.09;100.00;100573.03;5074760;28;20492;-74
2022/08/29 02:31:17;;;;;;;10.27;5.97;;;;;;;15.03;100.00;100575.88;5075930;28;20048;-75
2022/08/29 02:33:42;;;;;;;11.80;6.03;;;;;;;15.00;100.00;100568.28;5074548;28;20017;-74
2022/08/29 02:36:07;;;;;;;10.48;5.47;;;;;;;14.94;100.00;100570.34;5057866;28;20021;-74
2022/08/29 02:38:34;;;;;;;13.50;6.13;;;;;;;14.89;100.00;100576.88;5075659;28;20024;-73
2022/08/29 02:41:00;;;;;;;13.35;6.50;;;;;;;14.85;100.00;100579.22;5074436;28;20024;-76
2022/08/29 02:43:25;;;;;;;12.70;6.68;;;;;;;14.83;100.00;100584.69;5075934;28;20025;-75
2022/08/29 02:45:51;;;;;;;11.45;5.82;;;;;;;14.77;100.00;100586.78;5074523;28;20017;-74
2022/08/29 02:48:17;;;;;;;8.23;6.20;;;;;;;14.78;100.00;100582.56;5075575;28;20526;-75
2022/08/29 02:50:45;;;;;;;13.27;6.63;;;;;;;14.85;100.00;100584.97;5075795;28;20236;-75
2022/08/29 02:53:13;;;;;;;9.43;5.85;;;;;;;14.93;100.00;100591.00;5075989;28;20020;-74
2022/08/29 02:55:38;;;;;;;14.88;6.38;;;;;;;14.99;100.00;100589.72;5075574;28;20028;-74
2022/08/29 02:58:04;;;;;;;10.85;6.57;;;;;;;15.07;100.00;100590.81;5075534;28;20070;-74
2022/08/29 03:00:31;;;;;;;13.10;7.30;;;;;;;15.13;100.00;100588.75;5075388;28;20032;-74
2022/08/29 03:02:56;;;;;;;10.25;6.20;;;;;;;15.17;100.00;100588.47;5074171;28;20024;-75
2022/08/29 03:05:26;;;;;;;14.20;6.63;;;;;;;15.26;100.00;100597.69;5075510;28;20031;-74
2022/08/29 03:07:52;;;;;;;11.50;6.18;;;;;;;15.29;100.00;100592.97;5074139;28;20397;-75
2022/08/29 03:10:19;;;;;;;8.95;5.97;;;;;;;15.26;100.00;100605.56;5074029;28;20107;-74
2022/08/29 03:12:45;;;;;;;11.70;6.80;;;;;;;15.35;100.00;100593.00;5075179;28;20029;-74
2022/08/29 03:15:10;;;;;;;11.30;5.28;;;;;;;15.37;100.00;100591.16;5073935;28;20082;-75
2022/08/29 03:17:36;;;;;;;10.40;6.20;;;;;;;15.36;100.00;100598.25;5057011;28;20028;-74
2022/08/29 03:20:02;;;;;;;11.70;6.10;;;;;;;15.31;100.00;100586.72;5075179;28;20074;-73
2022/08/29 03:22:28;;;;;;;12.55;6.72;;;;;;;15.27;100.00;100590.63;5075173;28;20033;-75
2022/08/29 03:24:53;;;;;;;18.73;6.10;;;;;;;15.23;100.00;100600.81;5075058;28;20085;-74
2022/08/29 03:27:19;;;;;;;10.57;5.88;;;;;;;15.10;100.00;100592.66;5074868;28;20025;-73
2022/08/29 03:29:45;;;;;;;15.05;6.15;;;;;;;15.03;100.00;100604.66;5073877;28;20020;-74
2022/08/29 03:32:11;;;;;;;9.35;5.78;;;;;;;15.01;100.00;100604.41;5073864;28;20029;-73
2022/08/29 03:34:36;;;;;;;9.70;5.88;;;;;;;14.99;100.00;100604.13;5074830;28;20465;-75
2022/08/29 03:37:02;;;;;;;17.25;6.45;;;;;;;14.96;100.00;100607.25;5074966;28;20037;-75
2022/08/29 03:39:28;;;;;;;11.65;6.63;;;;;;;14.94;100.00;100612.72;5073408;28;20028;-75
2022/08/29 03:41:54;;;;;;;18.38;6.00;;;;;;;14.86;100.00;100603.03;5074150;28;20054;-75
2022/08/29 03:44:22;;;;;;;16.15;7.43;;;;;;;14.77;100.00;100612.66;5073441;28;20460;-74
2022/08/29 03:46:47;;;;;;;12.70;6.57;;;;;;;14.68;100.00;100605.00;5073312;28;20040;-74
2022/08/29 03:49:14;;;;;;;13.60;7.25;;;;;;;14.65;100.00;100597.41;5056719;28;20043;-74
2022/08/29 03:51:54;;;;;;;13.55;6.65;;;;;;;14.57;100.00;100602.06;5073145;28;20029;-74
2022/08/29 03:54:21;;;;;;;11.60;6.75;;;;;;;14.53;100.00;100612.22;5073427;28;20111;-74
2022/08/29 03:56:48;;;;;;;17.52;7.10;;;;;;;14.45;100.00;100616.88;5073053;28;20031;-74
2022/08/29 03:59:15;;;;;;;13.43;6.75;;;;;;;14.37;100.00;100620.22;5073303;28;20046;-75
2022/08/29 04:01:41;;;;;;;12.60;7.18;;;;;;;14.36;100.00;100618.66;5072999;28;20058;-74
2022/08/29 04:04:07;;;;;;;12.73;7.10;;;;;;;14.32;100.00;100612.34;5074363;28;20032;-75
2022/08/29 04:06:33;;;;;;;13.57;7.05;;;;;;;14.30;100.00;100622.78;5056414;28;20071;-73
2022/08/29 04:08:59;;;;;;;21.55;7.40;;;;;;;14.25;100.00;100614.88;5056422;28;20036;-75
2022/08/29 04:11:35;;;;;;;16.70;7.50;;;;;;;14.21;100.00;100612.25;5056143;28;20054;-76
2022/08/29 04:14:01;;;;;;;16.60;8.10;;;;;;;14.19;100.00;100616.94;5073022;28;20024;-74
2022/08/29 04:16:28;;;;;;;15.05;8.10;;;;;;;14.18;100.00;100621.13;5074083;28;20069;-73
2022/08/29 04:18:55;;;;;;;11.77;6.88;;;;;;;14.17;100.00;100625.28;5072471;28;20036;-74
2022/08/29 04:21:21;;;;;;;15.93;7.32;;;;;;;14.18;100.00;100624.00;5072649;28;20024;-75
2022/08/29 04:23:48;;;;;;;13.48;7.50;;;;;;;14.16;100.00;100621.63;5073832;28;20032;-75
2022/08/29 04:26:23;;;;;;;15.52;7.32;;;;;;;14.16;100.00;100621.63;5072843;28;20036;-74
2022/08/29 04:28:51;;;;;;;18.15;8.25;;;;;;;14.15;100.00;100630.75;5072430;28;20024;-74
2022/08/29 04:31:19;;;;;;;12.57;7.13;;;;;;;14.17;100.00;100626.09;5073689;28;20041;-75
2022/08/29 04:33:47;;;;;;;17.65;7.88;;;;;;;14.20;100.00;100627.13;5072563;28;20124;-74
2022/08/29 04:36:13;;;;;;;16.25;8.05;;;;;;;14.21;100.00;100635.25;5055775;28;20036;-75
2022/08/29 04:38:46;;;;;;;17.40;8.18;;;;;;;14.24;100.00;100639.97;5072378;28;20036;-74
2022/08/29 04:41:13;;;;;;;12.35;7.65;;;;;;;14.26;100.00;100645.22;5073689;28;20393;-75
2022/08/29 04:43:44;;;;;;;18.67;8.27;;;;;;;14.26;100.00;100643.13;5072148;28;20079;-72
2022/08/29 04:46:13;;;;;;;17.67;6.93;;;;;;;14.35;100.00;100657.31;5056063;28;20040;-71
2022/08/29 04:48:40;;;;;;;14.10;7.15;;;;;;;14.40;100.00;100647.16;5055388;28;20052;-72
2022/08/29 04:51:07;;;;;;;22.13;8.43;;;;;;;14.42;100.00;100653.97;5072249;28;20056;-72
2022/08/29 04:53:33;;;;;;;17.70;7.43;;;;;;;14.48;100.00;100656.13;5071983;28;20470;-73
2022/08/29 04:56:02;;;;;;;15.50;7.55;;;;;;;14.55;100.00;100662.16;5055736;28;20058;-72
2022/08/29 04:58:29;;;;;;;15.27;7.10;;;;;;;14.58;100.00;100658.28;5072167;28;20036;-71
2022/08/29 05:01:03;;;;;;;14.02;6.55;;;;;;;14.66;100.00;100658.63;5055458;28;20123;-72
2022/08/29 05:03:44;;;;;;;11.88;6.88;;;;;;;14.70;100.00;100656.28;5073613;28;20073;-73
2022/08/29 05:06:11;;;;;;;13.82;7.15;;;;;;;14.76;100.00;100666.53;5072898;28;20181;-73
2022/08/29 05:08:40;;;;;;;18.20;7.35;;;;;;;14.75;100.00;100667.84;5073165;28;20020;-73
2022/08/29 05:11:10;;;;;;;12.90;7.18;;;;;;;14.80;100.00;100657.66;5055661;28;20048;-72
2022/08/29 05:13:36;;;;;;;15.57;6.95;;;;;;;14.88;100.00;100657.94;5072336;28;20082;-73
2022/08/29 05:16:08;;;;;;;11.70;6.05;;;;;;;14.90;100.00;100664.00;5071858;28;20480;-73
2022/08/29 05:18:34;;;;;;;14.32;7.10;;;;;;;15.02;100.00;100665.63;5071912;28;20090;-73
2022/08/29 05:21:03;;;;;;;15.05;6.07;;;;;;;15.00;100.00;100671.09;5073132;28;20032;-72
2022/08/29 05:23:29;;;;;;;10.68;6.18;;;;;;;15.04;100.00;100672.44;5071790;28;20070;-73
2022/08/29 05:26:00;;;;;;;10.90;6.60;;;;;;;15.05;100.00;100676.91;5054673;28;20381;-73
2022/08/29 05:28:28;;;;;;;9.98;6.18;;;;;;;15.18;100.00;100668.59;5071750;28;20096;-73
2022/08/29 05:30:54;;;;;;;9.30;5.35;;;;;;;15.24;100.00;100668.59;5071691;28;20366;-73
2022/08/29 05:33:21;;;;;;;12.73;6.10;;;;;;;15.41;100.00;100677.34;5073198;28;20523;-73
2022/08/29 05:35:55;;;;;;;15.40;6.22;;;;;;;15.42;100.00;100685.44;5072382;28;20552;-72
2022/08/29 05:38:21;;;;;;;15.93;6.28;;;;;;;15.45;100.00;100687.28;5072866;28;20525;-71
2022/08/29 05:40:49;;;;;;;12.98;5.90;;;;;;;15.54;100.00;100689.94;5073219;28;20028;-74
2022/08/29 05:43:23;;;;;;;8.75;5.20;;;;;;;15.64;100.00;100685.56;5072257;28;20039;-73
2022/08/29 05:45:51;;;;;;;15.35;6.35;;;;;;;15.67;100.00;100681.63;5071902;28;20052;-73
2022/08/29 05:48:17;;;;;;;10.15;5.43;;;;;;;15.77;100.00;100690.03;5072742;28;20107;-75
2022/08/29 05:50:43;;;;;;;15.57;5.82;;;;;;;15.82;100.00;100692.94;5073024;28;20035;-76
2022/08/29 05:53:12;;;;;;;14.73;5.00;;;;;;;15.80;100.00;100694.78;5058251;28;20028;-75
2022/08/29 05:55:42;;;;;;;10.80;5.28;;;;;;;15.97;100.00;100686.94;5075510;28;20425;-72
2022/08/29 05:58:08;;;;;;;15.43;5.65;;;;;;;15.99;100.00;100685.13;5058873;28;20040;-75
2022/08/29 06:00:38;;;;;;;9.50;4.43;;;;;;;16.08;100.00;100696.38;5042553;28;20086;-76
2022/08/29 06:03:04;;;;;;;15.75;4.80;;;;;;;16.11;100.00;100692.44;5055109;28;20036;-74
2022/08/29 06:05:31;;;;;;;9.35;5.43;;;;;;;16.15;100.00;100697.97;5055846;28;20597;-76
2022/08/29 06:07:56;;;;;;;13.23;4.72;;;;;;;16.13;100.00;100694.81;5055417;28;20077;-74
2022/08/29 06:10:30;;;;;;;10.68;4.40;;;;;;;16.36;100.00;100704.28;5051610;28;20095;-73
2022/08/29 06:12:56;;;;;;;10.43;4.32;;;;;;;16.52;100.00;100698.50;5088881;28;20032;-74
2022/08/29 06:15:22;;;;;;;11.13;4.82;;;;;;;16.57;100.00;100699.84;5071759;28;20402;-77
2022/08/29 06:17:48;;;;;;;11.90;4.70;;;;;;;16.74;100.00;100702.72;5056932;28;20040;-76
2022/08/29 06:20:15;;;;;;;9.75;3.97;;;;;;;16.79;100.00;100702.72;5072574;28;20055;-78
2022/08/29 06:22:40;;;;;;;15.60;4.75;;;;;;;16.84;100.00;100707.72;5056355;28;20450;-75
2022/08/29 06:25:07;;;;;;;14.57;4.50;;;;;;;16.93;100.00;100704.53;5057006;28;20039;-75
2022/08/29 06:27:34;;;;;;;16.42;4.25;;;;;;;16.95;100.00;100718.44;5056359;28;20131;-76
2022/08/29 06:30:00;;;;;;;9.88;3.55;;;;;;;17.12;100.00;100724.19;5056151;28;20044;-77
2022/08/29 06:32:25;;;;;;;9.18;3.45;;;;;;;18.26;100.00;100731.28;5056413;28;20079;-74
2022/08/29 06:34:52;;;;;;;13.38;3.30;;;;;;;21.03;96.81;100717.59;5056321;28;20431;-76
2022/08/29 06:37:19;;;;;;;9.00;3.45;;;;;;;23.34;75.54;100724.97;5055939;28;20028;-75
2022/08/29 06:39:46;;;;;;;23.50;4.47;;;;;;;25.75;63.41;100719.44;5056053;28;20369;-76
2022/08/29 06:42:12;;;;;;;12.80;4.40;;;;;;;27.86;52.70;100739.03;5088319;28;20028;-75
2022/08/29 06:44:46;;;;;;;11.75;4.35;;;;;;;29.97;41.47;100759.88;5055856;28;20124;-76
2022/08/29 06:47:11;;;;;;;9.88;3.28;;;;;;;31.80;40.96;100760.81;5088138;28;20115;-76
2022/08/29 06:49:38;;;;;;;6.55;3.10;;;;;;;33.17;36.21;100777.41;5056145;28;20053;-76
2022/08/29 06:52:04;;;;;;;13.75;4.70;;;;;;;33.76;31.17;100784.84;5057851;28;20560;-78
2022/08/29 06:54:30;;;;;;;14.40;4.50;;;;;;;33.98;30.15;100791.34;5074731;28;20088;-76
2022/08/29 06:56:56;;;;;;;11.40;3.42;;;;;;;33.18;30.38;100793.75;5075089;28;20119;-77
2022/08/29 06:59:23;;;;;;;10.02;3.00;;;;;;;33.41;31.22;100781.13;5057508;28;20037;-77
2022/08/29 07:01:51;;;;;;;9.80;2.55;;;;;;;33.64;29.12;100787.03;5073911;28;20086;-76
2022/08/29 07:04:17;;;;;;;9.10;3.75;;;;;;;33.97;30.49;100792.78;5075679;28;20522;-80
2022/08/29 07:06:43;;;;;;;7.47;3.00;;;;;;;34.51;27.62;100800.47;5075061;28;20056;-74
2022/08/29 07:09:24;;;;;;;6.38;2.60;;;;;;;35.31;27.33;100789.50;5074323;28;20028;-77
2022/08/29 07:11:55;;;;;;;8.63;3.33;;;;;;;36.70;27.02;100787.19;5074483;28;20024;-77
2022/08/29 07:14:20;;;;;;;11.95;3.75;;;;;;;37.09;24.63;100795.03;5075869;28;20024;-75
2022/08/29 07:16:47;;;;;;;13.98;3.85;;;;;;;37.91;24.42;100791.44;5075674;28;20031;-75
2022/08/29 07:19:14;;;;;;;9.60;3.00;;;;;;;39.04;24.92;100783.56;5074184;28;20132;-77
2022/08/29 07:21:39;;;;;;;7.00;2.72;;;;;;;38.40;22.54;100779.41;5073073;28;20116;-75
2022/08/29 07:24:06;;;;;;;5.65;3.15;;;;;;;35.92;24.47;100775.72;5073156;28;20047;-75
2022/08/29 07:26:37;;;;;;;4.20;2.50;;;;;;;35.49;25.11;100786.78;5070973;28;20099;-74
2022/08/29 07:29:09;;;;;;;7.78;3.13;;;;;;;35.86;25.78;100789.50;5072863;28;20109;-77
2022/08/29 07:31:34;;;;;;;6.72;3.00;;;;;;;35.47;25.17;100784.44;5071206;28;20473;-77
2022/08/29 07:34:00;;;;;;;4.70;2.53;;;;;;;34.77;25.99;100793.13;5073048;28;20031;-73
2022/08/29 07:36:26;;;;;;;4.35;2.55;;;;;;;33.68;27.43;100792.47;5071262;28;20038;-73
2022/08/29 07:38:51;;;;;;;7.05;4.65;;;;;;;34.42;26.15;100793.28;5072526;28;20028;-75
2022/08/29 07:41:17;;;;;;;8.40;3.17;;;;;;;34.60;25.25;100800.31;5072408;28;20055;-76
2022/08/29 07:43:43;;;;;;;22.27;4.82;;;;;;;35.35;24.15;100789.72;5073145;28;20036;-75
2022/08/29 07:46:11;;;;;;;11.18;3.78;;;;;;;36.71;23.65;100791.72;5072294;28;20035;-76
2022/08/29 07:48:36;;;;;;;6.65;3.13;;;;;;;35.94;23.74;100786.97;5072283;28;20025;-76
2022/08/29 07:51:06;;;;;;;8.02;2.75;;;;;;;36.06;23.85;100774.94;5072231;28;20119;-77
2022/08/29 07:53:31;;;;;;;6.97;3.17;;;;;;;35.45;23.74;100787.31;5074605;28;20028;-76
2022/08/29 07:55:57;;;;;;;7.50;2.75;;;;;;;34.79;24.81;100793.25;5074321;28;20389;-77
2022/08/29 07:58:23;;;;;;;5.65;2.47;;;;;;;34.44;24.99;100789.66;5073335;28;20111;-75
2022/08/29 08:00:48;;;;;;;7.00;3.17;;;;;;;33.36;26.63;100785.25;5074227;28;20063;-76
2022/08/29 08:03:14;;;;;;;9.00;3.10;;;;;;;32.80;28.64;100789.06;5074419;28;20461;-74
2022/08/29 08:05:40;;;;;;;21.17;4.78;;;;;;;32.96;28.09;100784.19;5072642;28;20032;-74
2022/08/29 08:08:08;;;;;;;18.17;4.82;;;;;;;32.89;27.49;100784.44;5073955;28;20055;-77
2022/08/29 08:10:34;;;;;;;8.90;3.03;;;;;;;33.41;28.03;100790.81;5074893;28;20470;-77
2022/08/29 08:12:59;;;;;;;6.13;2.88;;;;;;;34.12;26.80;100786.28;5074445;28;20082;-75
2022/08/29 08:15:24;;;;;;;7.38;2.85;;;;;;;34.22;25.97;100786.13;5073108;28;20052;-77
2022/08/29 08:17:50;;;;;;;8.27;3.00;;;;;;;34.73;25.50;100783.97;5074250;28;20024;-77
2022/08/29 08:20:15;;;;;;;5.18;2.85;;;;;;;34.16;26.86;100785.81;5072646;28;20024;-74
2022/08/29 08:22:41;;;;;;;6.45;2.53;;;;;;;34.68;26.11;100785.94;5075737;28;20024;-77
2022/08/29 08:25:06;;;;;;;8.48;2.63;;;;;;;35.18;25.63;100785.09;5077759;28;20021;-78
2022/08/29 08:27:32;;;;;;;6.65;2.97;;;;;;;35.35;24.99;100786.75;5073614;28;20032;-75
2022/08/29 08:29:57;;;;;;;7.82;2.78;;;;;;;35.56;23.80;100788.66;5055669;28;20017;-75
2022/08/29 08:32:23;;;;;;;6.78;3.08;;;;;;;35.70;23.65;100785.66;5072478;28;20389;-76
2022/08/29 08:34:49;;;;;;;7.50;2.47;;;;;;;35.42;23.67;100791.59;5074308;28;20032;-78
2022/08/29 08:37:14;;;;;;;5.88;3.30;;;;;;;35.64;24.50;100794.28;5073979;28;20028;-76
2022/08/29 08:39:40;;;;;;;9.88;3.45;;;;;;;34.99;24.98;100790.66;5073959;28;20029;-77
2022/08/29 08:42:42;;;;;;;6.35;3.00;;;;;;;33.71;25.63;100791.97;5077092;28;20480;-76
2022/08/29 08:45:32;;;;;;;10.52;2.85;;;;;;;33.48;26.14;100800.84;5014618;28;20079;-78
2022/08/29 08:48:14;;;;;;;25.75;4.38;;;;;;;33.14;26.21;100793.47;5055412;28;20055;-76
2022/08/29 08:50:58;;;;;;;8.68;3.00;;;;;;;33.01;26.95;100788.19;5055741;28;20043;-77
2022/08/29 08:53:37;;;;;;;5.25;3.00;;;;;;;33.01;27.41;100788.19;5058134;28;20040;-76
2022/08/29 08:56:11;;;;;;;9.40;3.03;;;;;;;32.66;27.18;100791.06;5072446;28;20495;-78
2022/08/29 08:58:53;;;;;;;10.13;3.97;;;;;;;31.72;27.93;100792.78;5071847;28;20056;-78
2022/08/29 09:01:32;;;;;;;7.60;2.70;;;;;;;31.91;28.62;100794.81;5073031;28;20031;-75
2022/08/29 09:04:20;;;;;;;9.80;2.90;;;;;;;31.70;28.20;100785.94;5073438;28;20034;-75
2022/08/29 09:07:04;;;;;;;7.88;2.88;;;;;;;31.04;29.11;100797.47;5072246;28;20037;-75
2022/08/29 09:09:52;;;;;;;10.27;2.60;;;;;;;29.26;31.59;100795.53;5073651;28;20036;-77
2022/08/29 09:12:31;;;;;;;9.68;3.25;;;;;;;28.76;32.32;100792.97;5034632;28;20144;-75
2022/08/29 09:15:06;;;;;;;13.57;3.92;;;;;;;28.67;33.18;100778.19;5033628;28;20029;-75
2022/08/29 09:17:43;;;;;;;7.93;2.80;;;;;;;28.44;33.79;100779.25;5032972;28;20030;-77
2022/08/29 09:20:13;;;;;;;10.65;3.15;;;;;;;28.50;33.73;100779.03;5034154;28;20080;-76
2022/08/29 09:22:41;;;;;;;7.30;2.67;;;;;;;28.37;35.66;100764.66;5033453;28;20129;-75
2022/08/29 09:25:10;;;;;;;10.73;3.17;;;;;;;28.48;34.77;100764.16;5048610;28;20038;-77
2022/08/29 09:27:36;;;;;;;20.83;5.32;;;;;;;28.39;34.42;100762.66;5034481;28;20124;-76
2022/08/29 09:30:10;;;;;;;9.30;3.28;;;;;;;28.44;36.96;100757.91;5053263;28;20059;-76
2022/08/29 09:32:57;;;;;;;12.55;3.30;;;;;;;28.23;33.60;100772.31;5035234;28;20037;-76
2022/08/29 09:35:43;;;;;;;11.40;3.50;;;;;;;27.61;34.24;100757.50;5040201;28;20034;-76
2022/08/29 09:38:23;;;;;;;16.15;3.20;;;;;;;26.96;35.77;100756.91;5041032;28;20057;-76
2022/08/29 09:40:59;;;;;;;6.40;2.78;;;;;;;26.47;36.63;100751.75;5037027;28;20402;-75
2022/08/29 09:43:28;;;;;;;5.95;2.53;;;;;;;26.18;37.93;100751.31;5037536;28;20041;-74
2022/08/29 09:46:16;;;;;;;6.75;2.78;;;;;;;25.69;39.37;100760.63;5052475;28;20057;-79
2022/08/29 09:48:49;;;;;;;9.02;2.80;;;;;;;25.23;41.24;100748.22;5054578;28;20027;-78
2022/08/29 09:51:25;;;;;;;11.80;2.47;;;;;;;25.08;39.84;100751.16;5037103;28;20120;-78
2022/08/29 09:53:52;;;;;;;6.72;2.50;;;;;;;24.90;41.45;100749.38;5053348;28;20068;-78
2022/08/29 09:56:21;;;;;;;64.43;9.00;;;;;;;24.56;39.83;100759.22;5038350;28;20029;-77
2022/08/29 09:58:58;;;;;;;8.98;3.20;;;;;;;24.39;44.65;100740.69;5036368;28;20132;-75
2022/08/29 10:01:24;;;;;;;15.93;3.50;;;;;;;24.35;42.70;100743.19;5050046;28;20029;-76
2022/08/29 10:04:07;;;;;;;5.80;3.20;;;;;;;24.25;40.98;100751.72;5057677;28;20036;-76
2022/08/29 10:06:38;;;;;;;7.65;3.20;;;;;;;24.12;41.39;100760.63;5055887;28;20124;-73
2022/08/29 10:09:12;;;;;;;15.00;3.85;;;;;;;23.99;41.24;100758.63;5055775;28;20021;-78
2022/08/29 10:11:49;;;;;;;4.85;2.35;;;;;;;24.00;41.01;100756.50;5055435;28;20103;-79
2022/08/29 10:14:34;;;;;;;7.00;2.40;;;;;;;23.83;42.77;100750.38;5055711;28;20036;-74
2022/08/29 10:18:19;;;;;;;39.40;7.95;;;;;;;23.82;42.45;100748.78;5055359;28;20025;-76
2022/08/29 10:19:46;;;;;;;15.57;3.20;;;;;;;23.76;41.95;100757.72;5055479;28;20121;-77
2022/08/29 10:22:36;;;;;;;7.30;2.92;;;;;;;23.63;44.46;100758.63;5056376;28;20048;-77
2022/08/29 10:25:08;;;;;;;53.50;9.98;;;;;;;23.51;44.71;100751.50;5038911;28;20107;-77
2022/08/29 10:27:36;;;;;;;7.05;3.25;;;;;;;23.41;44.63;100750.47;5057482;28;20094;-76
2022/08/29 10:30:15;;;;;;;5.13;2.17;;;;;;;23.33;44.55;100749.66;5056308;28;20455;-76
2022/08/29 10:33:06;;;;;;;8.75;2.95;;;;;;;23.25;46.63;100742.97;5054665;28;20049;-75
2022/08/29 10:35:38;;;;;;;16.65;5.78;;;;;;;23.09;45.57;100752.97;5056041;28;20032;-79
2022/08/29 10:38:31;;;;;;;11.57;2.65;;;;;;;23.08;46.72;100739.72;5055095;28;20025;-75
2022/08/29 10:41:27;;;;;;;4.88;2.72;;;;;;;23.21;47.00;100749.16;5053340;28;20123;-77
2022/08/29 10:44:05;;;;;;;12.60;3.17;;;;;;;23.12;45.84;100746.75;5054410;28;20033;-74
2022/08/29 10:46:49;;;;;;;8.85;2.60;;;;;;;22.97;44.48;100748.75;5054728;28;20032;-75
2022/08/29 10:49:41;;;;;;;7.65;2.50;;;;;;;22.81;48.31;100736.97;5053082;28;20029;-75
2022/08/29 10:52:15;;;;;;;11.30;2.83;;;;;;;22.82;49.80;100738.50;5036617;28;20039;-75
2022/08/29 10:54:54;;;;;;;6.88;2.67;;;;;;;22.69;49.34;100744.41;5054514;28;20031;-75
2022/08/29 10:57:41;;;;;;;18.77;3.30;;;;;;;22.51;50.87;100737.44;5053065;28;20103;-76
2022/08/29 11:00:13;;;;;;;7.68;2.80;;;;;;;22.39;50.51;100738.28;5053945;28;20025;-78
2022/08/29 11:02:54;;;;;;;9.73;2.67;;;;;;;22.31;52.96;100725.75;5053451;28;20025;-78
2022/08/29 11:08:27;;;;;;;11.65;3.65;;;;;;;22.61;51.53;100731.13;5027384;28;20200;-77
2022/08/29 11:10:54;;;;;;;7.18;2.38;;;;;;;22.63;53.13;100725.50;5026032;28;20030;-77
2022/08/29 11:13:29;;;;;;;4.57;2.58;;;;;;;22.65;51.04;100719.91;5027632;28;20096;-78
2022/08/29 11:16:08;;;;;;;7.93;3.13;;;;;;;22.62;55.66;100718.88;5027473;28;20021;-78
2022/08/29 11:18:40;;;;;;;7.10;2.03;;;;;;;22.60;52.48;100720.81;5027575;28;20039;-76
2022/08/29 11:21:26;;;;;;;7.28;3.67;;;;;;;22.70;49.74;100739.38;5026033;28;20018;-77
2022/08/29 11:23:52;;;;;;;10.02;2.53;;;;;;;22.65;49.03;100729.41;5026933;28;20029;-75
2022/08/29 11:26:32;;;;;;;15.07;3.33;;;;;;;22.69;47.82;100731.97;5010255;28;20108;-77
2022/08/29 11:29:23;;;;;;;11.55;2.42;;;;;;;22.64;48.39;100727.06;5009603;28;20044;-77